Time;durP1;ratioP1;P1;durP2;ratioP2;P2;SDS_P1;SDS_P2;PMS_P1;PMS_P2;Temp;Humidity;BMP_temperature;BMP_pressure;BME280_temperature;BME280_humidity;BME280_pressure;Samples;Min_cycle;Max_cycle;Signal;HPM_P1;HPM_P2
2022/04/30 00:00:33;;;;;;;;;;;24.60;34.30;;;;;;1567915;75;1931;-56
2022/04/30 00:02:34;;;;;;;;;;;24.50;34.30;;;;;;1573786;75;618;-57
2022/04/30 00:04:37;;;;;;;;;;;24.50;34.40;;;;;;1557348;75;1077;-56
2022/04/30 00:06:38;;;;;;;;;;;24.50;34.40;;;;;;1547069;77;1608;-56
2022/04/30 00:08:40;;;;;;;;;;;24.50;34.40;;;;;;1507685;77;663;-56
2022/04/30 00:10:42;;;;;;;;;;;24.50;34.40;;;;;;1514787;78;1137;-55
2022/04/30 00:12:44;;;;;;;;;;;24.50;34.40;;;;;;1516123;77;661;-55
2022/04/30 00:14:50;;;;;;;;;;;24.50;34.40;;;;;;1547358;77;716;-55
2022/04/30 00:16:49;;;;;;;;;;;24.50;34.50;;;;;;1551992;75;1712;-56
2022/04/30 00:18:51;;;;;;;;;;;24.50;34.60;;;;;;1573795;75;645;-55
2022/04/30 00:20:53;;;;;;;;;;;24.40;34.50;;;;;;1573779;75;1949;-56
2022/04/30 00:22:55;;;;;;;;;;;24.50;34.50;;;;;;1564911;75;678;-57
2022/04/30 00:24:57;;;;;;;;;;;24.40;34.40;;;;;;1517954;78;1405;-56
2022/04/30 00:27:00;;;;;;;;;;;24.40;34.50;;;;;;1529168;78;580;-56
2022/04/30 00:29:02;;;;;;;;;;;24.50;34.60;;;;;;1524561;77;1179;-56
2022/04/30 00:31:04;;;;;;;;;;;24.40;34.60;;;;;;1529669;78;724;-56
2022/04/30 00:33:09;;;;;;;;;;;24.40;34.70;;;;;;1529633;78;664;-58
2022/04/30 00:35:10;;;;;;;;;;;24.40;34.70;;;;;;1528606;77;1269;-56
2022/04/30 00:37:12;;;;;;;;;;;24.50;34.80;;;;;;1529850;78;688;-56
2022/04/30 00:39:13;;;;;;;;;;;24.30;34.70;;;;;;1529756;78;1103;-58
2022/04/30 00:41:15;;;;;;;;;;;24.40;34.60;;;;;;1529847;78;1938;-56
2022/04/30 00:43:17;;;;;;;;;;;24.40;34.70;;;;;;1530093;78;635;-57
2022/04/30 00:45:20;;;;;;;;;;;24.40;34.70;;;;;;1529338;77;667;-58
2022/04/30 00:47:22;;;;;;;;;;;24.50;34.70;;;;;;1528028;77;715;-56
2022/04/30 00:49:24;;;;;;;;;;;24.40;34.60;;;;;;1529997;78;1186;-56
2022/04/30 00:51:27;;;;;;;;;;;24.30;34.60;;;;;;1530210;78;676;-56
2022/04/30 00:53:29;;;;;;;;;;;24.40;34.70;;;;;;1514851;78;665;-56
2022/04/30 00:55:31;;;;;;;;;;;24.30;34.70;;;;;;1507226;78;603;-56
2022/04/30 00:57:33;;;;;;;;;;;24.30;34.80;;;;;;1529520;78;680;-56
2022/04/30 00:59:36;;;;;;;;;;;24.30;34.80;;;;;;1529016;78;1948;-56
2022/04/30 01:01:38;;;;;;;;;;;24.40;34.80;;;;;;1529915;78;675;-56
2022/04/30 01:03:40;;;;;;;;;;;24.30;34.90;;;;;;1529770;76;1528;-55
2022/04/30 01:05:41;;;;;;;;;;;24.30;34.90;;;;;;1525154;78;659;-55
2022/04/30 01:07:43;;;;;;;;;;;24.20;34.70;;;;;;1529944;78;681;-55
2022/04/30 01:09:45;;;;;;;;;;;24.30;35.00;;;;;;1529315;78;1166;-55
2022/04/30 01:11:49;;;;;;;;;;;24.20;34.90;;;;;;1530114;78;634;-56
2022/04/30 01:13:51;;;;;;;;;;;24.20;34.90;;;;;;1529800;78;692;-58
2022/04/30 01:15:53;;;;;;;;;;;24.20;35.00;;;;;;1519768;78;665;-57
2022/04/30 01:17:54;;;;;;;;;;;24.20;34.90;;;;;;1523305;78;1568;-57
2022/04/30 01:19:56;;;;;;;;;;;24.10;35.00;;;;;;1528743;77;1944;-57
2022/04/30 01:21:59;;;;;;;;;;;24.10;35.00;;;;;;1515324;78;653;-59
2022/04/30 01:24:01;;;;;;;;;;;24.10;35.00;;;;;;1529759;78;643;-56
2022/04/30 01:26:02;;;;;;;;;;;24.00;35.00;;;;;;1528999;78;722;-55
2022/04/30 01:28:04;;;;;;;;;;;24.10;35.10;;;;;;1527753;77;644;-56
2022/04/30 01:30:07;;;;;;;;;;;24.00;35.10;;;;;;1529886;78;1153;-56
2022/04/30 01:39:08;;;;;;;;;;;24.00;35.30;;;;;;1529945;76;1867;-56
2022/04/30 01:41:10;;;;;;;;;;;24.00;35.20;;;;;;1529914;78;1932;-56
2022/04/30 01:43:12;;;;;;;;;;;24.00;35.30;;;;;;1529907;78;688;-55
2022/04/30 01:45:14;;;;;;;;;;;24.40;35.60;;;;;;1524912;78;1413;-56
2022/04/30 01:47:16;;;;;;;;;;;24.00;35.30;;;;;;1529140;78;757;-56
2022/04/30 01:49:18;;;;;;;;;;;24.00;35.30;;;;;;1521214;78;1173;-57
2022/04/30 01:51:20;;;;;;;;;;;24.00;35.30;;;;;;1504512;79;718;-57
2022/04/30 01:53:22;;;;;;;;;;;24.00;35.20;;;;;;1504734;79;645;-55
2022/04/30 01:55:24;;;;;;;;;;;24.00;35.30;;;;;;1521453;78;898;-55
2022/04/30 01:57:29;;;;;;;;;;;24.00;35.30;;;;;;1528811;77;571;-56
2022/04/30 01:59:31;;;;;;;;;;;24.00;35.30;;;;;;1525661;78;1557;-57
2022/04/30 02:01:34;;;;;;;;;;;24.00;35.30;;;;;;1529848;78;1933;-55
2022/04/30 02:03:37;;;;;;;;;;;24.00;35.40;;;;;;1529901;78;630;-55
2022/04/30 02:05:40;;;;;;;;;;;24.00;35.40;;;;;;1529859;78;743;-54
2022/04/30 02:07:48;;;;;;;;;;;23.90;35.40;;;;;;1529289;78;664;-55
2022/04/30 02:09:51;;;;;;;;;;;24.00;35.50;;;;;;1529797;77;1594;-55
2022/04/30 02:11:53;;;;;;;;;;;24.00;35.50;;;;;;1529812;78;684;-55
2022/04/30 02:13:55;;;;;;;;;;;24.00;35.50;;;;;;1526377;78;1711;-54
2022/04/30 02:15:56;;;;;;;;;;;23.90;35.60;;;;;;1529473;78;702;-54
2022/04/30 02:17:58;;;;;;;;;;;24.00;35.50;;;;;;1507083;77;669;-55
2022/04/30 02:20:18;;;;;;;;;;;24.00;35.50;;;;;;1504565;79;1939;-54
2022/04/30 02:22:21;;;;;;;;;;;24.00;35.50;;;;;;1504757;79;706;-55
2022/04/30 02:24:23;;;;;;;;;;;24.00;35.40;;;;;;1527290;78;777;-55
2022/04/30 02:26:28;;;;;;;;;;;24.00;35.40;;;;;;1529326;78;668;-56
2022/04/30 02:28:30;;;;;;;;;;;24.00;35.40;;;;;;1526198;77;699;-56
2022/04/30 02:30:35;;;;;;;;;;;24.20;35.50;;;;;;1527041;78;1195;-56
2022/04/30 02:32:37;;;;;;;;;;;24.20;35.50;;;;;;1529669;77;1431;-55
2022/04/30 02:34:39;;;;;;;;;;;24.20;35.40;;;;;;1529232;77;1001;-55
2022/04/30 02:36:41;;;;;;;;;;;24.20;35.30;;;;;;1530221;78;675;-55
2022/04/30 02:38:43;;;;;;;;;;;24.30;35.40;;;;;;1530222;78;664;-55
2022/04/30 02:40:45;;;;;;;;;;;24.20;35.40;;;;;;1528507;77;1942;-55
2022/04/30 02:42:47;;;;;;;;;;;24.10;35.60;;;;;;1529558;78;687;-55
2022/04/30 02:44:49;;;;;;;;;;;24.00;35.70;;;;;;1530199;78;752;-55
2022/04/30 02:46:50;;;;;;;;;;;24.00;35.90;;;;;;1501681;78;690;-56
2022/04/30 02:48:52;;;;;;;;;;;23.90;36.00;;;;;;1504417;79;802;-57
2022/04/30 02:50:59;;;;;;;;;;;23.90;36.40;;;;;;1531380;77;1082;-55
2022/04/30 02:52:58;;;;;;;;;;;23.90;36.50;;;;;;1533618;76;1576;-55
2022/04/30 02:55:00;;;;;;;;;;;23.90;36.70;;;;;;1532866;76;1511;-55
2022/04/30 02:57:02;;;;;;;;;;;23.90;36.70;;;;;;1539466;76;686;-55
2022/04/30 03:01:24;;;;;;;;;;;23.90;36.80;;;;;;1534573;77;1892;-55
2022/04/30 03:03:29;;;;;;;;;;;23.80;36.70;;;;;;1534637;77;662;-55
2022/04/30 03:05:31;;;;;;;;;;;23.90;36.80;;;;;;1533247;77;1658;-56
2022/04/30 03:07:33;;;;;;;;;;;23.90;36.80;;;;;;1534480;77;670;-57
2022/04/30 03:09:35;;;;;;;;;;;23.90;36.90;;;;;;1534318;77;1418;-56
2022/04/30 03:11:37;;;;;;;;;;;23.90;37.00;;;;;;1504784;76;763;-55
2022/04/30 03:13:38;;;;;;;;;;;24.00;37.00;;;;;;1509778;77;727;-56
2022/04/30 03:15:43;;;;;;;;;;;24.00;36.90;;;;;;1509011;79;660;-55
2022/04/30 03:22:25;;;;;;;;;;;24.00;36.90;;;;;;1534627;76;743;-55
2022/04/30 03:24:29;;;;;;;;;;;24.00;37.00;;;;;;1522543;76;1478;-55
2022/04/30 03:26:31;;;;;;;;;;;24.00;36.80;;;;;;1534282;76;667;-56
2022/04/30 03:28:33;;;;;;;;;;;24.00;36.90;;;;;;1534675;77;681;-57
2022/04/30 03:30:35;;;;;;;;;;;24.00;36.90;;;;;;1534700;77;1184;-56
2022/04/30 03:32:37;;;;;;;;;;;24.00;36.90;;;;;;1534517;77;689;-56
2022/04/30 03:34:39;;;;;;;;;;;24.00;36.90;;;;;;1533828;76;695;-56
2022/04/30 03:36:41;;;;;;;;;;;24.00;36.80;;;;;;1521329;77;664;-55
2022/04/30 03:38:43;;;;;;;;;;;24.00;36.90;;;;;;1523406;76;1719;-55
2022/04/30 03:40:44;;;;;;;;;;;24.10;37.00;;;;;;1503792;76;1924;-55
2022/04/30 03:42:48;;;;;;;;;;;24.00;36.80;;;;;;1526787;76;735;-55
2022/04/30 03:44:53;;;;;;;;;;;24.00;36.80;;;;;;1533231;77;656;-55
2022/04/30 03:46:54;;;;;;;;;;;24.00;36.70;;;;;;1532884;77;1455;-57
2022/04/30 03:48:56;;;;;;;;;;;24.10;36.80;;;;;;1533352;76;797;-57
2022/04/30 03:50:58;;;;;;;;;;;24.00;36.50;;;;;;1532680;77;1446;-57
2022/04/30 03:53:00;;;;;;;;;;;24.00;36.40;;;;;;1530841;76;657;-57
2022/04/30 03:55:02;;;;;;;;;;;24.00;36.40;;;;;;1559765;76;639;-55
2022/04/30 03:57:04;;;;;;;;;;;24.10;36.50;;;;;;1543799;76;667;-56
2022/04/30 03:59:06;;;;;;;;;;;24.00;36.50;;;;;;1534699;77;1150;-56
2022/04/30 04:01:08;;;;;;;;;;;24.10;36.70;;;;;;1534707;77;1934;-56
2022/04/30 04:03:10;;;;;;;;;;;24.10;36.60;;;;;;1534698;77;729;-55
2022/04/30 04:05:12;;;;;;;;;;;24.10;36.70;;;;;;1530295;77;1360;-57
2022/04/30 04:07:14;;;;;;;;;;;24.00;36.60;;;;;;1524153;76;634;-55
2022/04/30 04:09:16;;;;;;;;;;;24.00;36.60;;;;;;1510645;76;1140;-56
2022/04/30 04:11:19;;;;;;;;;;;24.10;36.70;;;;;;1509146;79;717;-56
2022/04/30 04:18:01;;;;;;;;;;;24.00;36.60;;;;;;1534187;76;718;-55
2022/04/30 04:20:03;;;;;;;;;;;24.00;36.60;;;;;;1534691;76;1500;-55
2022/04/30 04:22:04;;;;;;;;;;;24.00;36.60;;;;;;1533893;76;1931;-56
2022/04/30 04:26:26;;;;;;;;;;;24.00;36.60;;;;;;1533957;77;1644;-56
2022/04/30 04:28:28;;;;;;;;;;;24.10;36.70;;;;;;1534810;77;679;-56
2022/04/30 04:30:30;;;;;;;;;;;24.10;36.70;;;;;;1527668;77;1123;-57
2022/04/30 04:32:32;;;;;;;;;;;24.00;36.50;;;;;;1534697;77;679;-56
2022/04/30 04:34:34;;;;;;;;;;;24.10;36.70;;;;;;1532085;76;1510;-55
2022/04/30 04:36:36;;;;;;;;;;;24.00;36.50;;;;;;1559730;75;682;-56
2022/04/30 04:38:38;;;;;;;;;;;24.00;36.50;;;;;;1558414;75;781;-55
2022/04/30 04:40:40;;;;;;;;;;;24.00;36.50;;;;;;1547476;77;1147;-57
2022/04/30 04:42:42;;;;;;;;;;;24.00;36.40;;;;;;1546812;75;1896;-56
2022/04/30 04:44:44;;;;;;;;;;;24.00;36.50;;;;;;1547465;77;669;-56
2022/04/30 04:46:46;;;;;;;;;;;24.00;36.40;;;;;;1530182;78;625;-58
2022/04/30 04:48:47;;;;;;;;;;;24.10;36.50;;;;;;1529959;77;1453;-55
2022/04/30 04:50:51;;;;;;;;;;;24.00;36.40;;;;;;1529982;78;1172;-55
2022/04/30 04:52:53;;;;;;;;;;;24.00;36.40;;;;;;1528868;78;617;-56
2022/04/30 04:54:54;;;;;;;;;;;24.10;36.50;;;;;;1508779;78;711;-55
2022/04/30 04:56:56;;;;;;;;;;;24.00;36.40;;;;;;1529431;78;662;-55
2022/04/30 04:58:58;;;;;;;;;;;24.00;36.40;;;;;;1530160;78;707;-55
2022/04/30 05:01:00;;;;;;;;;;;24.10;36.60;;;;;;1529954;78;1936;-56
2022/04/30 05:03:02;;;;;;;;;;;24.10;36.50;;;;;;1523658;78;1582;-57
2022/04/30 05:05:04;;;;;;;;;;;24.10;36.60;;;;;;1529251;78;702;-56
2022/04/30 05:07:06;;;;;;;;;;;24.00;36.50;;;;;;1529724;78;652;-56
2022/04/30 05:09:08;;;;;;;;;;;24.10;36.80;;;;;;1530113;78;1154;-56
2022/04/30 05:11:10;;;;;;;;;;;24.00;36.70;;;;;;1530125;78;680;-56
2022/04/30 05:13:12;;;;;;;;;;;24.00;36.80;;;;;;1529294;78;733;-56
2022/04/30 05:15:14;;;;;;;;;;;24.10;36.80;;;;;;1528723;77;648;-56
2022/04/30 05:17:16;;;;;;;;;;;24.10;37.00;;;;;;1515209;76;656;-57
2022/04/30 05:19:18;;;;;;;;;;;24.00;36.80;;;;;;1516597;76;1157;-56
2022/04/30 05:21:19;;;;;;;;;;;24.10;36.50;;;;;;1519542;76;1937;-57
2022/04/30 05:23:21;;;;;;;;;;;24.10;36.40;;;;;;1529632;76;692;-56
2022/04/30 05:25:23;;;;;;;;;;;24.10;36.40;;;;;;1525557;76;735;-56
2022/04/30 05:27:25;;;;;;;;;;;24.00;36.20;;;;;;1525282;76;686;-56
2022/04/30 05:29:27;;;;;;;;;;;24.10;36.10;;;;;;1529554;76;1595;-56
2022/04/30 05:31:29;;;;;;;;;;;24.10;36.20;;;;;;1529545;76;728;-56
2022/04/30 05:33:34;;;;;;;;;;;24.10;36.20;;;;;;1528352;76;717;-55
2022/04/30 05:35:36;;;;;;;;;;;24.00;36.10;;;;;;1526826;76;1496;-55
2022/04/30 05:37:40;;;;;;;;;;;24.00;36.20;;;;;;1529336;76;684;-54
2022/04/30 05:39:41;;;;;;;;;;;24.10;36.50;;;;;;1528537;76;1686;-55
2022/04/30 05:41:43;;;;;;;;;;;24.10;36.70;;;;;;1529794;76;1955;-55
2022/04/30 05:43:45;;;;;;;;;;;24.00;36.70;;;;;;1526956;76;1474;-55
2022/04/30 05:45:47;;;;;;;;;;;24.00;36.80;;;;;;1529167;76;768;-55
2022/04/30 05:47:49;;;;;;;;;;;24.00;37.00;;;;;;1526872;76;706;-55
2022/04/30 05:49:51;;;;;;;;;;;24.10;37.20;;;;;;1527756;76;1136;-56
2022/04/30 05:51:52;;;;;;;;;;;24.10;37.20;;;;;;1529349;76;699;-56
2022/04/30 05:53:54;;;;;;;;;;;24.10;37.20;;;;;;1528358;76;649;-55
2022/04/30 05:55:56;;;;;;;;;;;24.10;37.30;;;;;;1529355;76;646;-56
2022/04/30 05:57:58;;;;;;;;;;;24.10;37.30;;;;;;1528890;76;1608;-55
2022/04/30 06:00:00;;;;;;;;;;;24.10;37.40;;;;;;1523527;76;1226;-55
2022/04/30 06:02:02;;;;;;;;;;;24.10;37.40;;;;;;1529498;76;1948;-55
2022/04/30 06:04:04;;;;;;;;;;;24.10;37.50;;;;;;1529049;76;720;-56
2022/04/30 06:06:06;;;;;;;;;;;24.00;37.30;;;;;;1529634;76;683;-55
2022/04/30 06:08:08;;;;;;;;;;;24.00;37.40;;;;;;1529659;76;645;-55
2022/04/30 06:10:10;;;;;;;;;;;24.20;37.50;;;;;;1529886;76;1163;-55
2022/04/30 06:12:12;;;;;;;;;;;24.10;37.50;;;;;;1528241;76;1485;-56
2022/04/30 06:14:13;;;;;;;;;;;24.10;37.50;;;;;;1526455;76;687;-54
2022/04/30 06:16:16;;;;;;;;;;;24.10;37.50;;;;;;1524612;76;680;-55
2022/04/30 06:18:20;;;;;;;;;;;24.10;37.50;;;;;;1526434;76;716;-55
2022/04/30 06:20:22;;;;;;;;;;;24.10;37.50;;;;;;1529603;76;1147;-55
2022/04/30 06:22:23;;;;;;;;;;;24.10;37.50;;;;;;1525888;76;1936;-55
2022/04/30 06:24:25;;;;;;;;;;;24.10;37.60;;;;;;1529584;76;724;-55
2022/04/30 06:26:27;;;;;;;;;;;24.10;37.60;;;;;;1529067;76;1491;-55
2022/04/30 06:28:29;;;;;;;;;;;24.10;37.60;;;;;;1528835;76;688;-56
2022/04/30 06:30:31;;;;;;;;;;;24.20;37.60;;;;;;1519660;76;1086;-55
2022/04/30 06:32:33;;;;;;;;;;;24.10;37.70;;;;;;1529701;76;727;-56
2022/04/30 06:34:35;;;;;;;;;;;24.10;37.70;;;;;;1528238;76;700;-56
2022/04/30 06:36:38;;;;;;;;;;;24.10;37.60;;;;;;1529676;76;739;-56
2022/04/30 06:38:40;;;;;;;;;;;24.10;37.30;;;;;;1526282;76;665;-56
2022/04/30 06:40:42;;;;;;;;;;;24.50;36.60;;;;;;1521921;76;1504;-56
2022/04/30 06:42:44;;;;;;;;;;;24.60;35.90;;;;;;1525567;76;1941;-56
2022/04/30 06:44:47;;;;;;;;;;;24.80;35.50;;;;;;1525900;76;704;-56
2022/04/30 06:46:49;;;;;;;;;;;24.80;35.30;;;;;;1526290;76;669;-56
2022/04/30 06:48:51;;;;;;;;;;;24.90;35.10;;;;;;1525559;76;692;-56
2022/04/30 06:50:53;;;;;;;;;;;24.80;34.90;;;;;;1530159;78;1110;-55
2022/04/30 06:57:35;;;;;;;;;;;24.70;34.70;;;;;;1529759;78;741;-57
2022/04/30 06:59:41;;;;;;;;;;;24.70;34.70;;;;;;1530050;78;1110;-56
2022/04/30 07:03:49;;;;;;;;;;;24.70;34.50;;;;;;1529446;76;884;-56
2022/04/30 07:06:04;;;;;;;;;;;24.60;34.40;;;;;;1523923;78;779;-56
2022/04/30 07:08:06;;;;;;;;;;;24.80;34.40;;;;;;1525531;78;1455;-56
2022/04/30 07:10:08;;;;;;;;;;;24.60;34.20;;;;;;1518892;78;1183;-58
2022/04/30 07:12:13;;;;;;;;;;;24.60;34.30;;;;;;1510899;78;742;-57
2022/04/30 07:14:14;;;;;;;;;;;24.70;34.30;;;;;;1529839;77;1412;-58
2022/04/30 07:16:16;;;;;;;;;;;24.70;34.20;;;;;;1530084;78;657;-53
2022/04/30 07:18:18;;;;;;;;;;;24.80;34.00;;;;;;1530137;78;663;-58
2022/04/30 07:20:19;;;;;;;;;;;24.80;33.80;;;;;;1530195;77;1124;-57
2022/04/30 07:22:21;;;;;;;;;;;24.90;33.90;;;;;;1529525;76;1930;-58
2022/04/30 07:24:23;;;;;;;;;;;24.80;33.60;;;;;;1530107;78;678;-57
2022/04/30 07:26:25;;;;;;;;;;;24.80;33.70;;;;;;1528799;78;679;-54
2022/04/30 07:28:30;;;;;;;;;;;24.80;33.80;;;;;;1530175;78;629;-55
2022/04/30 07:30:30;;;;;;;;;;;24.90;33.70;;;;;;1529870;77;1608;-55
2022/04/30 07:32:32;;;;;;;;;;;24.80;33.60;;;;;;1530224;78;660;-55
2022/04/30 07:34:35;;;;;;;;;;;24.80;33.70;;;;;;1528639;78;712;-55
2022/04/30 07:36:40;;;;;;;;;;;24.90;33.70;;;;;;1522130;76;1587;-54
2022/04/30 07:38:42;;;;;;;;;;;24.80;33.70;;;;;;1517781;78;676;-57
2022/04/30 07:40:43;;;;;;;;;;;24.80;33.70;;;;;;1529045;76;1146;-54
2022/04/30 07:42:45;;;;;;;;;;;24.80;33.50;;;;;;1529197;76;1944;-56
2022/04/30 07:44:47;;;;;;;;;;;24.80;33.50;;;;;;1529990;78;662;-56
2022/04/30 07:46:49;;;;;;;;;;;24.70;33.40;;;;;;1530094;78;696;-56
2022/04/30 07:48:51;;;;;;;;;;;24.70;33.40;;;;;;1530070;78;673;-54
2022/04/30 07:50:57;;;;;;;;;;;24.80;33.50;;;;;;1529283;77;1516;-56
2022/04/30 07:52:56;;;;;;;;;;;24.80;33.30;;;;;;1529111;77;1424;-57
2022/04/30 07:54:58;;;;;;;;;;;24.80;33.10;;;;;;1530008;78;698;-58
2022/04/30 07:57:00;;;;;;;;;;;24.80;33.10;;;;;;1529515;78;681;-56
2022/04/30 07:59:02;;;;;;;;;;;24.90;33.10;;;;;;1525349;76;1193;-56
2022/04/30 08:01:04;;;;;;;;;;;24.90;33.10;;;;;;1527597;76;692;-56
2022/04/30 08:03:06;;;;;;;;;;;25.00;32.90;;;;;;1528905;76;1936;-56
2022/04/30 08:05:08;;;;;;;;;;;24.90;32.90;;;;;;1527034;76;1539;-57
2022/04/30 08:07:10;;;;;;;;;;;25.00;32.90;;;;;;1526265;76;644;-56
2022/04/30 08:09:12;;;;;;;;;;;25.00;32.80;;;;;;1525701;76;1155;-57
2022/04/30 08:11:14;;;;;;;;;;;25.00;32.70;;;;;;1526863;76;697;-57
2022/04/30 08:13:16;;;;;;;;;;;25.00;32.60;;;;;;1521524;76;746;-56
2022/04/30 08:15:18;;;;;;;;;;;25.00;32.70;;;;;;1525120;76;680;-56
2022/04/30 08:17:20;;;;;;;;;;;24.90;32.70;;;;;;1525134;76;551;-56
2022/04/30 08:19:22;;;;;;;;;;;24.80;32.80;;;;;;1524555;76;1449;-56
2022/04/30 08:21:23;;;;;;;;;;;24.80;32.80;;;;;;1525554;76;700;-57
2022/04/30 08:23:25;;;;;;;;;;;24.80;32.80;;;;;;1521231;77;1928;-58
2022/04/30 08:25:27;;;;;;;;;;;24.80;32.90;;;;;;1526301;78;745;-56
2022/04/30 08:27:29;;;;;;;;;;;24.90;32.90;;;;;;1529881;76;683;-56
2022/04/30 08:29:31;;;;;;;;;;;24.80;32.90;;;;;;1529663;76;1147;-56
2022/04/30 08:31:33;;;;;;;;;;;24.90;33.20;;;;;;1530087;76;684;-57
2022/04/30 08:33:36;;;;;;;;;;;24.90;33.00;;;;;;1527930;76;1507;-57
2022/04/30 08:35:37;;;;;;;;;;;24.80;33.10;;;;;;1520929;76;673;-57
2022/04/30 08:37:39;;;;;;;;;;;24.90;33.20;;;;;;1525410;76;654;-54
2022/04/30 08:39:41;;;;;;;;;;;24.90;33.30;;;;;;1523812;76;1245;-56
2022/04/30 08:41:43;;;;;;;;;;;25.00;33.20;;;;;;1529811;76;677;-53
2022/04/30 08:43:46;;;;;;;;;;;25.00;33.20;;;;;;1523403;76;1959;-55
2022/04/30 08:45:48;;;;;;;;;;;24.90;33.20;;;;;;1529724;76;660;-56
2022/04/30 08:47:50;;;;;;;;;;;24.90;33.30;;;;;;1528407;76;1471;-54
2022/04/30 08:49:52;;;;;;;;;;;24.80;33.30;;;;;;1519175;76;1133;-54
2022/04/30 08:51:54;;;;;;;;;;;24.80;33.40;;;;;;1529165;77;755;-54
2022/04/30 08:53:56;;;;;;;;;;;24.90;33.40;;;;;;1521167;76;673;-56
2022/04/30 08:55:58;;;;;;;;;;;24.80;33.30;;;;;;1520910;76;735;-55
2022/04/30 08:58:02;;;;;;;;;;;24.90;33.40;;;;;;1525999;78;672;-56
2022/04/30 09:00:04;;;;;;;;;;;24.80;33.30;;;;;;1528086;77;2161;-54
2022/04/30 09:02:10;;;;;;;;;;;24.80;33.40;;;;;;1516923;78;1555;-55
2022/04/30 09:04:12;;;;;;;;;;;24.80;33.40;;;;;;1526322;78;1924;-56
2022/04/30 09:06:18;;;;;;;;;;;24.80;33.20;;;;;;1523450;78;695;-54
2022/04/30 09:08:20;;;;;;;;;;;24.90;33.30;;;;;;1528933;78;609;-55
2022/04/30 09:10:22;;;;;;;;;;;25.00;33.10;;;;;;1529824;78;1121;-55
2022/04/30 09:12:24;;;;;;;;;;;24.90;33.10;;;;;;1528454;78;746;-54
2022/04/30 09:14:29;;;;;;;;;;;24.90;33.10;;;;;;1523873;78;1500;-54
2022/04/30 09:16:32;;;;;;;;;;;24.90;33.10;;;;;;1527391;78;715;-55
2022/04/30 09:18:35;;;;;;;;;;;24.80;33.10;;;;;;1528816;78;664;-54
2022/04/30 09:20:44;;;;;;;;;;;24.80;33.10;;;;;;1529741;77;1651;-56
2022/04/30 09:22:47;;;;;;;;;;;24.80;33.20;;;;;;1524761;77;1905;-53
2022/04/30 09:24:49;;;;;;;;;;;24.70;33.20;;;;;;1530055;78;635;-55
2022/04/30 09:26:52;;;;;;;;;;;24.80;33.30;;;;;;1527796;76;706;-55
2022/04/30 09:28:55;;;;;;;;;;;24.80;33.30;;;;;;1514432;76;1350;-57
2022/04/30 09:31:16;;;;;;;;;;;24.80;33.30;;;;;;1520583;78;1109;-53
2022/04/30 09:33:19;;;;;;;;;;;24.80;33.40;;;;;;1529989;78;685;-58
2022/04/30 09:37:41;;;;;;;;;;;24.70;33.40;;;;;;1512657;76;1665;-59
2022/04/30 09:39:43;;;;;;;;;;;24.80;33.50;;;;;;1529981;76;1144;-59
2022/04/30 09:41:46;;;;;;;;;;;24.60;33.30;;;;;;1529397;76;795;-59
2022/04/30 09:43:49;;;;;;;;;;;24.70;33.50;;;;;;1529040;78;1924;-56
2022/04/30 09:45:51;;;;;;;;;;;24.70;33.50;;;;;;1528310;77;1775;-57
2022/04/30 09:47:54;;;;;;;;;;;24.70;33.60;;;;;;1508246;79;1040;-57
2022/04/30 09:54:36;;;;;;;;;;;24.80;33.50;;;;;;1518121;78;1652;-56
2022/04/30 09:56:39;;;;;;;;;;;24.80;33.60;;;;;;1528640;78;1182;-56
2022/04/30 09:58:42;;;;;;;;;;;24.80;33.40;;;;;;1516053;77;691;-54
2022/04/30 10:00:44;;;;;;;;;;;24.90;33.40;;;;;;1528968;76;1120;-57
2022/04/30 10:02:46;;;;;;;;;;;24.90;33.40;;;;;;1529671;78;1936;-55
2022/04/30 10:04:48;;;;;;;;;;;24.90;33.40;;;;;;1529413;78;734;-58
2022/04/30 10:06:51;;;;;;;;;;;25.00;33.40;;;;;;1522322;78;705;-57
2022/04/30 10:08:53;;;;;;;;;;;25.00;33.30;;;;;;1529164;78;687;-57
2022/04/30 10:10:56;;;;;;;;;;;25.00;33.30;;;;;;1530198;76;1447;-54
2022/04/30 10:13:03;;;;;;;;;;;25.00;33.40;;;;;;1529802;77;1771;-55
2022/04/30 10:15:12;;;;;;;;;;;24.80;33.30;;;;;;1521874;78;1740;-56
2022/04/30 10:17:17;;;;;;;;;;;24.80;33.50;;;;;;1530173;78;687;-56
2022/04/30 10:19:20;;;;;;;;;;;24.80;33.60;;;;;;1529386;78;1101;-54
2022/04/30 10:21:22;;;;;;;;;;;24.70;33.80;;;;;;1517155;78;686;-57
2022/04/30 10:23:24;;;;;;;;;;;24.70;33.90;;;;;;1529950;78;1940;-55
2022/04/30 10:25:42;;;;;;;;;;;24.70;34.10;;;;;;1529099;78;1636;-57
2022/04/30 10:27:44;;;;;;;;;;;24.60;33.90;;;;;;1523806;78;777;-55
2022/04/30 10:29:57;;;;;;;;;;;24.50;34.00;;;;;;1529311;76;1124;-57
2022/04/30 10:31:59;;;;;;;;;;;24.50;34.10;;;;;;1526878;76;736;-55
2022/04/30 10:34:00;;;;;;;;;;;24.40;34.10;;;;;;1524758;76;723;-56
2022/04/30 10:36:10;;;;;;;;;;;24.40;34.20;;;;;;1529554;76;684;-56
2022/04/30 10:38:18;;;;;;;;;;;24.40;34.30;;;;;;1528594;76;691;-55
2022/04/30 10:40:20;;;;;;;;;;;24.40;34.30;;;;;;1520683;77;1508;-54
2022/04/30 10:42:29;;;;;;;;;;;24.40;34.40;;;;;;1526867;76;675;-57
2022/04/30 10:44:32;;;;;;;;;;;24.40;34.40;;;;;;1523945;78;1900;-57
2022/04/30 10:46:42;;;;;;;;;;;24.50;34.40;;;;;;1526834;76;705;-57
2022/04/30 10:48:44;;;;;;;;;;;24.50;34.20;;;;;;1522000;76;640;-56
2022/04/30 10:50:47;;;;;;;;;;;24.50;34.20;;;;;;1525696;76;1120;-58
2022/04/30 10:52:49;;;;;;;;;;;24.50;34.20;;;;;;1528464;76;1445;-54
2022/04/30 10:54:53;;;;;;;;;;;24.60;34.20;;;;;;1523533;76;696;-54
2022/04/30 10:57:01;;;;;;;;;;;24.60;34.10;;;;;;1528446;76;639;-56
2022/04/30 10:59:03;;;;;;;;;;;24.60;34.00;;;;;;1529554;76;1120;-57
2022/04/30 11:01:12;;;;;;;;;;;24.70;34.00;;;;;;1529660;76;682;-56
2022/04/30 11:03:14;;;;;;;;;;;24.70;34.10;;;;;;1529031;76;1921;-54
2022/04/30 11:05:19;;;;;;;;;;;24.70;34.00;;;;;;1528597;76;748;-55
2022/04/30 11:07:21;;;;;;;;;;;24.70;33.90;;;;;;1527514;76;1378;-56
2022/04/30 11:09:23;;;;;;;;;;;24.80;33.80;;;;;;1529663;76;1100;-55
2022/04/30 11:11:25;;;;;;;;;;;24.80;33.70;;;;;;1520024;78;664;-56
2022/04/30 11:13:27;;;;;;;;;;;24.90;33.60;;;;;;1527065;76;683;-56
2022/04/30 11:15:29;;;;;;;;;;;24.90;33.60;;;;;;1528408;76;652;-54
2022/04/30 11:17:31;;;;;;;;;;;25.00;33.50;;;;;;1525185;76;683;-57
2022/04/30 11:19:33;;;;;;;;;;;25.00;33.50;;;;;;1506298;77;1171;-58
2022/04/30 11:21:35;;;;;;;;;;;25.00;33.40;;;;;;1501565;77;1516;-56
2022/04/30 11:23:37;;;;;;;;;;;25.00;33.30;;;;;;1520934;76;1934;-56
2022/04/30 11:25:39;;;;;;;;;;;25.10;33.30;;;;;;1521847;76;681;-57
2022/04/30 11:27:41;;;;;;;;;;;25.10;33.20;;;;;;1525337;76;700;-57
2022/04/30 11:29:50;;;;;;;;;;;25.10;33.10;;;;;;1520484;76;1068;-57
2022/04/30 11:31:52;;;;;;;;;;;25.20;33.20;;;;;;1518974;76;704;-55
2022/04/30 11:33:54;;;;;;;;;;;25.10;33.10;;;;;;1528482;76;687;-55
2022/04/30 11:35:56;;;;;;;;;;;25.10;33.20;;;;;;1520263;76;1579;-56
2022/04/30 11:37:58;;;;;;;;;;;25.10;33.20;;;;;;1529823;78;651;-55
2022/04/30 11:40:06;;;;;;;;;;;25.10;33.30;;;;;;1515348;76;1079;-56
2022/04/30 11:42:09;;;;;;;;;;;25.10;33.20;;;;;;1523530;76;684;-56
2022/04/30 11:44:11;;;;;;;;;;;25.10;33.20;;;;;;1519999;76;1920;-57
2022/04/30 11:46:13;;;;;;;;;;;25.10;33.20;;;;;;1528658;78;686;-57
2022/04/30 11:48:15;;;;;;;;;;;25.00;33.20;;;;;;1488728;79;1365;-56
2022/04/30 11:50:17;;;;;;;;;;;25.10;33.20;;;;;;1520754;78;1573;-56
2022/04/30 11:52:18;;;;;;;;;;;25.10;33.30;;;;;;1529726;78;716;-56
2022/04/30 11:54:24;;;;;;;;;;;25.10;33.30;;;;;;1507825;77;800;-56
2022/04/30 11:56:26;;;;;;;;;;;25.00;33.40;;;;;;1521546;78;737;-56
2022/04/30 11:58:29;;;;;;;;;;;25.00;33.40;;;;;;1508222;76;676;-57
2022/04/30 12:00:33;;;;;;;;;;;25.00;33.50;;;;;;1521490;76;1669;-56
2022/04/30 12:02:39;;;;;;;;;;;25.00;33.50;;;;;;1510924;76;692;-56
2022/04/30 12:04:43;;;;;;;;;;;24.90;33.60;;;;;;1513348;76;1923;-56
2022/04/30 12:06:45;;;;;;;;;;;24.90;33.70;;;;;;1514607;76;1404;-56
2022/04/30 12:08:47;;;;;;;;;;;24.80;33.70;;;;;;1522152;76;682;-57
2022/04/30 12:10:56;;;;;;;;;;;24.80;33.70;;;;;;1517895;76;1128;-56
2022/04/30 12:12:58;;;;;;;;;;;24.80;33.70;;;;;;1519982;76;1179;-56
2022/04/30 12:15:01;;;;;;;;;;;24.90;33.90;;;;;;1528878;76;682;-56
2022/04/30 12:17:03;;;;;;;;;;;24.80;33.80;;;;;;1529063;76;687;-56
2022/04/30 12:26:05;;;;;;;;;;;24.80;33.80;;;;;;1508661;76;1968;-56
2022/04/30 12:28:09;;;;;;;;;;;24.80;33.90;;;;;;1524107;76;784;-56
2022/04/30 12:30:14;;;;;;;;;;;24.80;33.90;;;;;;1529325;76;1805;-55
2022/04/30 12:32:18;;;;;;;;;;;24.80;34.00;;;;;;1524220;76;1542;-56
2022/04/30 12:34:25;;;;;;;;;;;24.90;33.90;;;;;;1528966;76;719;-56
2022/04/30 12:36:27;;;;;;;;;;;25.00;33.90;;;;;;1523637;76;683;-56
2022/04/30 12:38:31;;;;;;;;;;;25.00;33.80;;;;;;1526677;76;761;-56
2022/04/30 12:40:33;;;;;;;;;;;24.90;33.80;;;;;;1523270;76;1159;-56
2022/04/30 12:42:37;;;;;;;;;;;24.90;33.80;;;;;;1525167;76;697;-56
2022/04/30 12:44:39;;;;;;;;;;;24.90;33.90;;;;;;1527043;76;1940;-56
2022/04/30 12:46:47;;;;;;;;;;;24.80;34.00;;;;;;1524806;76;1371;-56
2022/04/30 12:48:49;;;;;;;;;;;24.70;34.30;;;;;;1516438;76;955;-56
2022/04/30 12:50:51;;;;;;;;;;;24.70;34.50;;;;;;1526236;76;1158;-56
2022/04/30 12:52:53;;;;;;;;;;;24.60;34.60;;;;;;1528902;76;665;-56